createdAt,value
2023-02-18T00:01:25.319Z,6.15
2023-02-18T00:03:53.122Z,10.32
2023-02-18T00:06:26.797Z,8.65
2023-02-18T00:08:54.287Z,6.85
2023-02-18T00:11:22.410Z,8.95
2023-02-18T00:13:54.354Z,9.20
2023-02-18T00:16:22.010Z,8.65
2023-02-18T00:18:49.143Z,7.60
2023-02-18T00:21:16.293Z,10.10
2023-02-18T00:23:44.033Z,7.03
2023-02-18T00:26:14.239Z,7.32
2023-02-18T00:28:42.542Z,8.20
2023-02-18T00:31:13.348Z,6.20
2023-02-18T00:33:40.678Z,9.35
2023-02-18T00:36:15.097Z,6.70
2023-02-18T00:38:52.840Z,8.30
2023-02-18T00:41:20.901Z,7.15
2023-02-18T00:43:48.152Z,9.05
2023-02-18T00:46:15.667Z,8.23
2023-02-18T00:48:42.819Z,6.50
2023-02-18T00:51:10.566Z,7.15
2023-02-18T00:53:37.416Z,8.32
2023-02-18T00:56:07.132Z,8.05
2023-02-18T00:58:35.409Z,6.10
2023-02-18T01:01:07.535Z,7.90
2023-02-18T01:03:35.179Z,6.95
2023-02-18T01:06:02.359Z,5.55
2023-02-18T01:08:29.821Z,5.78
2023-02-18T01:10:58.525Z,6.95
2023-02-18T01:13:26.772Z,5.22
2023-02-18T01:15:54.323Z,5.55
2023-02-18T01:18:22.739Z,4.85
2023-02-18T01:20:49.509Z,4.85
2023-02-18T01:23:16.599Z,6.55
2023-02-18T01:25:43.397Z,5.15
2023-02-18T01:28:13.465Z,6.88
2023-02-18T01:30:41.256Z,7.72
2023-02-18T01:33:08.680Z,8.32
2023-02-18T01:35:39.890Z,6.57
2023-02-18T01:38:07.688Z,10.48
2023-02-18T01:40:34.986Z,9.68
2023-02-18T01:43:03.032Z,13.38
2023-02-18T01:45:38.887Z,10.45
2023-02-18T01:48:09.767Z,6.32
2023-02-18T01:50:41.345Z,6.97
2023-02-18T01:53:09.035Z,8.90
2023-02-18T01:55:37.038Z,4.45
2023-02-18T01:58:04.380Z,4.53
2023-02-18T02:00:32.878Z,4.28
2023-02-18T02:02:59.840Z,10.02
2023-02-18T02:05:31.962Z,9.65
2023-02-18T02:08:00.356Z,11.55
2023-02-18T02:10:37.793Z,10.23
2023-02-18T02:13:32.672Z,9.60
2023-02-18T02:16:11.619Z,8.30
2023-02-18T02:18:44.786Z,8.68
2023-02-18T02:21:32.624Z,9.48
2023-02-18T02:24:06.129Z,7.75
2023-02-18T02:26:38.965Z,5.72
2023-02-18T02:29:33.270Z,6.60
2023-02-18T02:32:24.810Z,9.30
2023-02-18T02:35:03.629Z,5.18
2023-02-18T02:37:42.364Z,5.50
2023-02-18T02:40:29.177Z,5.82
2023-02-18T02:43:23.845Z,9.02
2023-02-18T02:46:00.081Z,7.93
2023-02-18T02:48:58.739Z,12.82
2023-02-18T02:51:32.472Z,14.88
2023-02-18T02:54:18.933Z,8.95
2023-02-18T02:56:46.274Z,14.15
2023-02-18T02:59:22.643Z,14.88
2023-02-18T03:02:26.240Z,11.23
2023-02-18T03:05:30.345Z,9.43
2023-02-18T03:08:23.431Z,10.23
2023-02-18T03:11:05.173Z,10.55
2023-02-18T03:13:51.802Z,9.35
2023-02-18T03:16:36.746Z,8.40
2023-02-18T03:19:13.157Z,8.50
2023-02-18T03:21:59.373Z,7.22
2023-02-18T03:24:46.703Z,10.05
2023-02-18T03:27:23.240Z,6.97
2023-02-18T03:29:59.351Z,6.53
2023-02-18T03:32:29.188Z,7.32
2023-02-18T03:35:02.112Z,7.95
2023-02-18T03:37:32.152Z,8.50
2023-02-18T03:40:00.935Z,8.02
2023-02-18T03:42:29.077Z,7.13
2023-02-18T03:44:56.303Z,5.43
2023-02-18T03:47:24.176Z,9.05
2023-02-18T03:49:51.215Z,6.38
2023-02-18T03:52:18.103Z,10.20
2023-02-18T03:54:44.898Z,6.45
2023-02-18T03:57:11.703Z,8.07
2023-02-18T03:59:38.620Z,6.55
2023-02-18T04:02:05.782Z,7.10
2023-02-18T04:04:32.646Z,6.38
2023-02-18T04:06:59.976Z,5.55
2023-02-18T04:09:26.897Z,5.65
2023-02-18T04:11:54.087Z,5.63
2023-02-18T04:14:20.892Z,7.60
2023-02-18T04:16:47.691Z,7.72
2023-02-18T04:19:14.920Z,5.32
2023-02-18T04:21:41.715Z,7.28
2023-02-18T04:24:08.849Z,8.00
2023-02-18T04:26:35.708Z,6.75
2023-02-18T04:29:03.257Z,7.10
2023-02-18T04:31:30.583Z,7.40
2023-02-18T04:33:57.584Z,9.43
2023-02-18T04:36:24.401Z,25.42
2023-02-18T04:38:51.207Z,12.98
2023-02-18T04:41:18.068Z,13.45
2023-02-18T04:43:44.872Z,10.25
2023-02-18T04:46:11.913Z,11.60
2023-02-18T04:48:38.860Z,10.30
2023-02-18T04:51:05.780Z,10.45
2023-02-18T04:53:32.570Z,11.80
2023-02-18T04:55:59.966Z,11.52
2023-02-18T04:58:26.900Z,10.32
2023-02-18T05:00:54.125Z,9.82
2023-02-18T05:03:21.996Z,6.53
2023-02-18T05:05:49.264Z,9.02
2023-02-18T05:08:16.381Z,9.57
2023-02-18T05:10:43.239Z,8.43
2023-02-18T05:13:10.234Z,7.10
2023-02-18T05:15:37.301Z,7.82
2023-02-18T05:18:04.441Z,8.23
2023-02-18T05:20:31.541Z,8.35
2023-02-18T05:22:58.420Z,12.48
2023-02-18T05:25:25.327Z,8.65
2023-02-18T05:27:52.194Z,10.57
2023-02-18T05:30:19.306Z,8.48
2023-02-18T05:32:46.137Z,9.43
2023-02-18T05:35:14.013Z,12.10
2023-02-18T05:37:40.802Z,10.38
2023-02-18T05:40:08.236Z,7.40
2023-02-18T05:42:35.508Z,9.20
2023-02-18T05:45:02.726Z,8.73
2023-02-18T05:47:29.541Z,6.82
2023-02-18T05:49:56.379Z,12.45
2023-02-18T05:52:23.374Z,8.07
2023-02-18T05:54:50.348Z,8.80
2023-02-18T05:57:17.311Z,9.10
2023-02-18T05:59:44.321Z,8.27
2023-02-18T06:02:11.531Z,6.70
2023-02-18T06:04:40.542Z,7.18
2023-02-18T06:07:07.885Z,7.35
2023-02-18T06:09:34.696Z,7.72
2023-02-18T06:12:01.496Z,7.63
2023-02-18T06:14:28.388Z,6.80
2023-02-18T06:16:55.141Z,9.77
2023-02-18T06:19:22.022Z,8.48
2023-02-18T06:21:49.293Z,7.15
2023-02-18T06:24:16.578Z,9.63
2023-02-18T06:26:43.377Z,9.10
2023-02-18T06:29:10.216Z,12.07
2023-02-18T06:31:37.463Z,11.57
2023-02-18T06:34:04.396Z,9.38
2023-02-18T06:36:31.435Z,12.00
2023-02-18T06:38:59.325Z,15.70
2023-02-18T06:41:26.112Z,28.10
2023-02-18T06:43:52.923Z,24.10
2023-02-18T06:46:19.785Z,17.17
2023-02-18T06:48:46.712Z,14.07
2023-02-18T06:51:14.463Z,20.92
2023-02-18T06:53:41.593Z,18.65
2023-02-18T06:56:09.468Z,16.38
2023-02-18T06:58:36.562Z,15.88
2023-02-18T07:01:04.575Z,17.90
2023-02-18T07:03:31.880Z,17.13
2023-02-18T07:05:59.896Z,24.08
2023-02-18T07:08:27.290Z,18.80
2023-02-18T07:10:54.142Z,13.18
2023-02-18T07:13:20.924Z,17.92
2023-02-18T07:15:47.702Z,13.38
2023-02-18T07:18:14.726Z,17.67
2023-02-18T07:20:41.956Z,29.55
2023-02-18T07:23:08.932Z,39.92
2023-02-18T07:25:35.714Z,31.15
2023-02-18T07:28:02.632Z,24.88
2023-02-18T07:30:29.548Z,24.90
2023-02-18T07:32:56.386Z,18.23
2023-02-18T07:35:23.313Z,17.45
2023-02-18T07:37:50.941Z,21.20
2023-02-18T07:40:20.452Z,31.40
2023-02-18T07:42:47.668Z,21.98
2023-02-18T07:45:15.238Z,23.08
2023-02-18T07:47:42.598Z,22.35
2023-02-18T07:50:10.208Z,23.30
2023-02-18T07:52:37.080Z,22.20
2023-02-18T07:55:04.799Z,15.88
2023-02-18T07:57:31.672Z,19.50
2023-02-18T07:59:58.491Z,20.27
2023-02-18T08:02:25.954Z,18.45
2023-02-18T08:04:53.275Z,22.88
2023-02-18T08:07:22.903Z,18.83
2023-02-18T08:09:50.752Z,19.77
2023-02-18T08:12:18.180Z,24.27
2023-02-18T08:14:45.875Z,18.80
2023-02-18T08:17:12.876Z,20.05
2023-02-18T08:19:39.701Z,25.05
2023-02-18T08:22:06.919Z,24.10
2023-02-18T08:24:33.699Z,24.33
2023-02-18T08:27:01.781Z,23.90
2023-02-18T08:29:29.422Z,18.40
2023-02-18T08:31:58.167Z,15.50
2023-02-18T08:34:25.703Z,23.98
2023-02-18T08:36:52.533Z,23.38
2023-02-18T08:39:19.364Z,22.10
2023-02-18T08:41:46.125Z,23.77
2023-02-18T08:44:13.158Z,22.35
2023-02-18T08:46:40.404Z,25.38
2023-02-18T08:49:07.391Z,21.67
2023-02-18T08:51:34.755Z,23.13
2023-02-18T08:54:01.872Z,24.35
2023-02-18T08:56:29.215Z,26.67
2023-02-18T08:58:56.464Z,17.80
2023-02-18T09:01:23.431Z,21.05
2023-02-18T09:03:50.368Z,22.08
2023-02-18T09:06:17.389Z,19.48
2023-02-18T09:08:44.153Z,20.05
2023-02-18T09:11:11.998Z,19.85
2023-02-18T09:13:38.958Z,12.13
2023-02-18T09:16:09.448Z,10.75
2023-02-18T09:18:36.438Z,9.95
2023-02-18T09:21:05.847Z,11.13
2023-02-18T09:23:33.974Z,8.15
2023-02-18T09:26:04.007Z,11.77
2023-02-18T09:28:31.285Z,7.57
2023-02-18T09:31:00.354Z,7.72
2023-02-18T09:33:27.709Z,7.45
2023-02-18T09:35:54.634Z,6.05
2023-02-18T09:38:21.473Z,14.18
2023-02-18T09:40:52.510Z,6.78
2023-02-18T09:43:29.119Z,6.15
2023-02-18T09:45:58.272Z,6.90
2023-02-18T09:48:28.905Z,6.25
2023-02-18T09:50:56.108Z,7.13
2023-02-18T09:53:24.444Z,19.88
2023-02-18T09:55:56.486Z,6.63
2023-02-18T09:58:33.552Z,9.02
2023-02-18T10:01:22.692Z,8.93
2023-02-18T10:03:50.075Z,4.85
2023-02-18T10:06:24.234Z,5.68
2023-02-18T10:08:53.873Z,5.10
2023-02-18T10:11:30.628Z,5.97
2023-02-18T10:13:58.842Z,9.65
2023-02-18T10:16:26.275Z,7.53
2023-02-18T10:19:04.594Z,4.40
2023-02-18T10:21:36.209Z,63.28
2023-02-18T10:24:26.695Z,13.15
2023-02-18T10:26:53.680Z,5.47
2023-02-18T10:29:22.156Z,6.40
2023-02-18T10:32:26.952Z,3.72
2023-02-18T10:35:17.574Z,4.18
2023-02-18T10:37:44.385Z,3.20
2023-02-18T10:40:58.010Z,4.22
2023-02-18T10:43:47.989Z,2.40
2023-02-18T10:46:40.043Z,2.65
2023-02-18T10:49:24.627Z,2.53
2023-02-18T10:51:55.434Z,2.95
2023-02-18T10:54:27.496Z,3.00
2023-02-18T10:57:00.217Z,7.85
2023-02-18T10:59:33.943Z,5.85
2023-02-18T11:02:15.186Z,6.78
2023-02-18T11:04:44.770Z,4.75
2023-02-18T11:07:21.315Z,5.15
2023-02-18T11:09:48.143Z,4.45
2023-02-18T11:12:33.824Z,4.60
2023-02-18T11:15:17.773Z,5.30
2023-02-18T11:17:48.203Z,4.88
2023-02-18T11:20:23.961Z,4.28
2023-02-18T11:22:51.571Z,4.07
2023-02-18T11:25:42.637Z,4.50
2023-02-18T11:28:18.515Z,8.82
2023-02-18T11:30:48.606Z,4.05
2023-02-18T11:33:42.672Z,4.35
2023-02-18T11:36:27.757Z,5.10
2023-02-18T11:38:58.044Z,8.88
2023-02-18T11:41:38.612Z,9.15
2023-02-18T11:44:18.063Z,8.90
2023-02-18T11:47:03.797Z,4.20
2023-02-18T11:49:34.092Z,6.60
2023-02-18T11:52:24.826Z,4.30
2023-02-18T11:55:07.035Z,5.13
2023-02-18T11:57:40.136Z,5.10
2023-02-18T12:00:26.203Z,5.40
2023-02-18T12:02:56.696Z,3.85
2023-02-18T12:05:27.434Z,3.33
2023-02-18T12:08:14.592Z,6.82
2023-02-18T12:10:46.832Z,2.90
2023-02-18T12:13:50.576Z,4.35
2023-02-18T12:16:39.786Z,4.38
2023-02-18T12:19:43.766Z,3.50
2023-02-18T12:22:25.652Z,4.10
2023-02-18T12:25:04.151Z,3.85
2023-02-18T12:27:48.517Z,5.05
2023-02-18T12:30:46.590Z,6.35
2023-02-18T12:33:16.685Z,6.80
2023-02-18T12:36:08.487Z,8.38
2023-02-18T12:38:47.272Z,7.25
2023-02-18T12:41:45.305Z,8.40
2023-02-18T12:44:24.821Z,4.47
2023-02-18T12:47:26.606Z,3.88
2023-02-18T12:50:03.860Z,5.03
2023-02-18T12:53:00.666Z,4.03
2023-02-18T12:56:05.555Z,4.75
2023-02-18T12:58:59.940Z,5.53
2023-02-18T13:01:47.598Z,7.07
2023-02-18T13:04:20.192Z,6.82
2023-02-18T13:06:59.061Z,5.97
2023-02-18T13:10:00.136Z,5.50
2023-02-18T13:12:44.239Z,10.27
2023-02-18T13:15:40.621Z,9.35
2023-02-18T13:18:34.514Z,8.13
2023-02-18T13:21:08.323Z,7.22
2023-02-18T13:24:00.829Z,11.55
2023-02-18T13:26:31.456Z,10.65
2023-02-18T13:29:26.443Z,8.70
2023-02-18T13:32:10.788Z,8.35
2023-02-18T13:34:48.911Z,11.55
2023-02-18T13:37:30.081Z,11.60
2023-02-18T13:39:59.096Z,7.03
2023-02-18T13:42:37.323Z,11.77
2023-02-18T13:45:07.410Z,14.80
2023-02-18T13:47:37.315Z,10.65
2023-02-18T13:50:22.290Z,7.30
2023-02-18T13:52:50.379Z,6.88
2023-02-18T13:55:23.882Z,8.77
2023-02-18T13:57:55.175Z,9.30
2023-02-18T14:00:26.035Z,26.08
2023-02-18T14:02:58.782Z,12.63
2023-02-18T14:05:38.484Z,11.52
2023-02-18T14:08:15.656Z,19.17
2023-02-18T14:10:42.950Z,16.00
2023-02-18T14:13:20.273Z,17.67
2023-02-18T14:15:57.096Z,14.98
2023-02-18T14:18:34.366Z,9.05
2023-02-18T14:21:12.304Z,13.02
2023-02-18T14:23:39.057Z,17.27
2023-02-18T14:26:14.931Z,9.35
2023-02-18T14:28:52.316Z,10.82
2023-02-18T14:31:32.294Z,8.35
2023-02-18T14:33:59.562Z,9.25
2023-02-18T14:36:37.175Z,7.72
2023-02-18T14:39:30.583Z,11.57
2023-02-18T14:42:15.497Z,8.00
2023-02-18T14:44:45.283Z,10.25
2023-02-18T14:47:33.463Z,7.53
2023-02-18T14:50:03.694Z,8.60
2023-02-18T14:52:48.925Z,9.93
2023-02-18T14:55:29.999Z,8.02
2023-02-18T14:58:03.335Z,14.35
2023-02-18T15:00:35.190Z,8.02
2023-02-18T15:03:03.013Z,9.27
2023-02-18T15:05:32.918Z,11.27
2023-02-18T15:07:59.742Z,15.13
2023-02-18T15:10:37.973Z,19.58
2023-02-18T15:13:08.586Z,10.25
2023-02-18T15:15:38.799Z,17.27
2023-02-18T15:18:05.860Z,13.38
2023-02-18T15:20:38.446Z,15.52
2023-02-18T15:23:05.391Z,11.80
2023-02-18T15:25:32.278Z,10.32
2023-02-18T15:27:59.192Z,9.77
2023-02-18T15:30:30.847Z,11.82
2023-02-18T15:32:59.696Z,11.82
2023-02-18T15:35:30.918Z,8.05
2023-02-18T15:38:00.279Z,9.23
2023-02-18T15:40:31.671Z,8.43
2023-02-18T15:43:02.094Z,12.13
2023-02-18T15:45:39.379Z,15.10
2023-02-18T15:48:06.739Z,7.97
2023-02-18T15:50:37.109Z,8.98
2023-02-18T15:53:13.677Z,4.53
2023-02-18T15:55:43.283Z,8.48
2023-02-18T15:58:28.453Z,4.93
2023-02-18T16:00:58.075Z,5.20
2023-02-18T16:03:37.560Z,4.32
2023-02-18T16:06:23.026Z,4.75
2023-02-18T16:09:07.503Z,4.95
2023-02-18T16:11:39.149Z,5.97
2023-02-18T16:14:06.575Z,3.42
2023-02-18T16:16:39.562Z,4.35
2023-02-18T16:19:06.424Z,4.93
2023-02-18T16:21:37.954Z,4.50
2023-02-18T16:24:23.954Z,7.13
2023-02-18T16:26:53.408Z,8.88
2023-02-18T16:29:34.755Z,7.88
2023-02-18T16:32:02.384Z,4.95
2023-02-18T16:34:29.291Z,6.57
2023-02-18T16:37:14.452Z,6.38
2023-02-18T16:39:41.230Z,5.75
2023-02-18T16:42:15.117Z,7.53
2023-02-18T16:44:41.976Z,6.80
2023-02-18T16:47:15.586Z,7.75
2023-02-18T16:49:45.951Z,6.57
2023-02-18T16:52:16.148Z,7.63
2023-02-18T16:54:43.722Z,7.15
2023-02-18T16:57:11.466Z,9.10
2023-02-18T16:59:38.788Z,7.38
2023-02-18T17:02:19.178Z,7.63
2023-02-18T17:04:46.087Z,5.20
2023-02-18T17:07:13.387Z,9.10
2023-02-18T17:09:40.255Z,7.85
2023-02-18T17:12:07.039Z,6.30
2023-02-18T17:14:33.915Z,8.70
2023-02-18T17:17:03.350Z,8.05
2023-02-18T17:19:30.265Z,7.30
2023-02-18T17:21:57.067Z,8.63
2023-02-18T17:24:24.332Z,7.60
2023-02-18T17:26:51.144Z,9.68
2023-02-18T17:29:19.622Z,8.07
2023-02-18T17:31:48.604Z,6.72
2023-02-18T17:34:37.719Z,8.57
2023-02-18T17:37:04.567Z,6.88
2023-02-18T17:39:31.442Z,6.38
2023-02-18T17:41:58.272Z,6.07
2023-02-18T17:44:26.052Z,8.80
2023-02-18T17:46:56.724Z,7.82
2023-02-18T17:49:23.596Z,7.82
2023-02-18T17:51:50.470Z,8.27
2023-02-18T17:54:19.944Z,7.35
2023-02-18T17:56:47.446Z,7.32
2023-02-18T17:59:14.701Z,5.43
2023-02-18T18:01:43.565Z,5.07
2023-02-18T18:04:15.865Z,4.32
2023-02-18T18:06:43.204Z,4.65
2023-02-18T18:09:10.229Z,6.85
2023-02-18T18:11:37.848Z,6.43
2023-02-18T18:14:04.827Z,6.40
2023-02-18T18:16:32.304Z,8.18
2023-02-18T18:18:59.160Z,7.93
2023-02-18T18:21:31.147Z,7.22
2023-02-18T18:23:58.194Z,7.30
2023-02-18T18:26:25.162Z,11.88
2023-02-18T18:28:53.467Z,7.45
2023-02-18T18:31:21.338Z,8.82
2023-02-18T18:33:53.020Z,8.98
2023-02-18T18:36:24.386Z,7.93
2023-02-18T18:38:52.005Z,8.30
2023-02-18T18:41:21.943Z,6.90
2023-02-18T18:43:50.069Z,6.45
2023-02-18T18:46:17.796Z,8.77
2023-02-18T18:48:45.010Z,6.30
2023-02-18T18:51:18.663Z,6.88
2023-02-18T18:53:45.831Z,6.32
2023-02-18T18:56:13.778Z,4.57
2023-02-18T18:58:42.159Z,5.03
2023-02-18T19:01:17.082Z,4.82
2023-02-18T19:03:45.318Z,5.72
2023-02-18T19:06:13.695Z,7.75
2023-02-18T19:08:40.550Z,7.72
2023-02-18T19:11:07.854Z,5.30
2023-02-18T19:13:36.244Z,7.95
2023-02-18T19:16:22.410Z,5.53
2023-02-18T19:18:49.696Z,5.47
2023-02-18T19:21:17.016Z,7.32
2023-02-18T19:23:44.107Z,6.82
2023-02-18T19:26:11.635Z,6.85
2023-02-18T19:28:38.428Z,6.53
2023-02-18T19:31:10.626Z,8.57
2023-02-18T19:33:39.600Z,7.97
2023-02-18T19:36:08.949Z,6.18
2023-02-18T19:38:36.222Z,5.50
2023-02-18T19:41:14.411Z,5.55
2023-02-18T19:43:42.819Z,7.63
2023-02-18T19:46:11.809Z,10.15
2023-02-18T19:48:38.801Z,13.43
2023-02-18T19:51:07.080Z,10.90
2023-02-18T19:53:34.417Z,11.63
2023-02-18T19:56:06.208Z,13.40
2023-02-18T19:58:34.077Z,16.65
2023-02-18T20:01:00.995Z,13.57
2023-02-18T20:03:27.880Z,14.07
2023-02-18T20:05:54.788Z,15.85
2023-02-18T20:08:21.588Z,14.30
2023-02-18T20:10:59.630Z,14.57
2023-02-18T20:13:26.837Z,17.95
2023-02-18T20:15:53.738Z,15.60
2023-02-18T20:18:20.963Z,18.45
2023-02-18T20:20:49.177Z,14.68
2023-02-18T20:23:16.112Z,12.35
2023-02-18T20:25:43.211Z,11.05
2023-02-18T20:28:10.024Z,10.90
2023-02-18T20:30:36.846Z,13.25
2023-02-18T20:33:03.939Z,15.27
2023-02-18T20:35:31.636Z,13.25
2023-02-18T20:37:58.470Z,11.32
2023-02-18T20:40:27.205Z,15.73
2023-02-18T20:42:54.071Z,20.98
2023-02-18T20:45:20.938Z,12.77
2023-02-18T20:47:47.759Z,15.52
2023-02-18T20:50:15.901Z,16.35
2023-02-18T20:52:43.192Z,13.95
2023-02-18T20:55:10.150Z,10.93
2023-02-18T20:57:37.382Z,13.23
2023-02-18T21:00:05.565Z,11.93
2023-02-18T21:02:32.970Z,13.13
2023-02-18T21:04:59.820Z,21.50
2023-02-18T21:07:27.048Z,14.27
2023-02-18T21:09:53.840Z,10.98
2023-02-18T21:12:20.817Z,13.57
2023-02-18T21:14:47.641Z,12.40
2023-02-18T21:17:14.416Z,11.57
2023-02-18T21:19:41.760Z,9.75
2023-02-18T21:22:09.195Z,12.52
2023-02-18T21:24:36.172Z,11.85
2023-02-18T21:27:03.576Z,14.27
2023-02-18T21:29:30.872Z,16.20
2023-02-18T21:31:57.815Z,20.38
2023-02-18T21:34:25.988Z,18.67
2023-02-18T21:36:53.135Z,10.90
2023-02-18T21:39:19.954Z,9.30
2023-02-18T21:41:46.746Z,11.52
2023-02-18T21:44:13.664Z,14.55
2023-02-18T21:46:41.083Z,12.20
2023-02-18T21:49:09.816Z,9.48
2023-02-18T21:51:59.125Z,9.45
2023-02-18T21:54:31.528Z,8.25
2023-02-18T21:57:00.527Z,10.38
2023-02-18T21:59:29.897Z,11.25
2023-02-18T22:02:00.256Z,13.05
2023-02-18T22:04:29.480Z,8.32
2023-02-18T22:06:56.377Z,11.13
2023-02-18T22:09:23.411Z,8.32
2023-02-18T22:11:51.210Z,8.52
2023-02-18T22:14:18.145Z,8.00
2023-02-18T22:16:45.284Z,7.57
2023-02-18T22:19:12.514Z,7.40
2023-02-18T22:21:39.998Z,11.07
2023-02-18T22:24:07.889Z,10.73
2023-02-18T22:26:34.845Z,11.50
2023-02-18T22:29:02.511Z,10.80
2023-02-18T22:31:30.882Z,8.63
2023-02-18T22:33:59.352Z,10.82
2023-02-18T22:36:28.179Z,6.70
2023-02-18T22:38:56.255Z,8.40
2023-02-18T22:41:25.081Z,5.90
2023-02-18T22:44:04.041Z,6.10
2023-02-18T22:46:32.593Z,5.30
2023-02-18T22:48:59.930Z,6.00
2023-02-18T22:51:30.598Z,7.10
2023-02-18T22:53:59.601Z,7.97
2023-02-18T22:56:29.325Z,8.45
2023-02-18T22:58:57.486Z,8.00
2023-02-18T23:01:30.266Z,7.10
2023-02-18T23:04:02.362Z,12.00
2023-02-18T23:06:29.673Z,10.95
2023-02-18T23:08:57.148Z,10.25
2023-02-18T23:11:24.563Z,10.75
2023-02-18T23:14:12.518Z,12.60
2023-02-18T23:16:58.487Z,7.95
2023-02-18T23:19:26.821Z,13.20
2023-02-18T23:21:54.089Z,9.25
2023-02-18T23:24:21.483Z,10.70
2023-02-18T23:26:49.380Z,11.40
2023-02-18T23:29:17.269Z,14.20
2023-02-18T23:31:44.610Z,11.63
2023-02-18T23:34:14.969Z,11.18
2023-02-18T23:36:43.011Z,8.23
2023-02-18T23:39:12.018Z,17.70
2023-02-18T23:41:39.602Z,9.93
2023-02-18T23:44:08.556Z,13.57
2023-02-18T23:46:35.598Z,13.10
2023-02-18T23:49:02.823Z,12.38
2023-02-18T23:51:32.575Z,14.40
2023-02-18T23:54:03.539Z,8.82
2023-02-18T23:56:30.613Z,12.50
2023-02-18T23:59:00.746Z,13.77
